sensor_id;sensor_type;location;lat;lon;timestamp;temperature;humidity
10812;DHT22;5458;51.496;7.334;2022-08-03T00:01:17;23.10;97.40
10812;DHT22;5458;51.496;7.334;2022-08-03T00:03:43;23.10;97.50
10812;DHT22;5458;51.496;7.334;2022-08-03T00:06:09;23.10;97.80
10812;DHT22;5458;51.496;7.334;2022-08-03T00:08:35;23.10;98.10
10812;DHT22;5458;51.496;7.334;2022-08-03T00:11:00;23.00;98.10
10812;DHT22;5458;51.496;7.334;2022-08-03T00:13:26;23.00;98.00
10812;DHT22;5458;51.496;7.334;2022-08-03T00:15:52;23.00;98.10
10812;DHT22;5458;51.496;7.334;2022-08-03T00:18:18;23.00;98.20
10812;DHT22;5458;51.496;7.334;2022-08-03T00:20:44;23.00;98.30
10812;DHT22;5458;51.496;7.334;2022-08-03T00:23:10;22.90;98.30
10812;DHT22;5458;51.496;7.334;2022-08-03T00:25:35;22.90;98.50
10812;DHT22;5458;51.496;7.334;2022-08-03T00:28:03;22.90;98.50
10812;DHT22;5458;51.496;7.334;2022-08-03T00:30:29;22.90;98.60
10812;DHT22;5458;51.496;7.334;2022-08-03T00:32:55;22.90;98.70
10812;DHT22;5458;51.496;7.334;2022-08-03T00:35:20;22.80;98.70
10812;DHT22;5458;51.496;7.334;2022-08-03T00:37:46;22.80;98.80
10812;DHT22;5458;51.496;7.334;2022-08-03T00:40:13;22.80;98.90
10812;DHT22;5458;51.496;7.334;2022-08-03T00:45:16;22.80;99.10
10812;DHT22;5458;51.496;7.334;2022-08-03T00:47:43;22.70;99.10
10812;DHT22;5458;51.496;7.334;2022-08-03T00:50:08;22.70;99.30
10812;DHT22;5458;51.496;7.334;2022-08-03T00:52:34;22.70;99.40
10812;DHT22;5458;51.496;7.334;2022-08-03T00:55:01;22.60;99.40
10812;DHT22;5458;51.496;7.334;2022-08-03T00:57:29;22.60;99.50
10812;DHT22;5458;51.496;7.334;2022-08-03T00:59:56;22.60;99.60
10812;DHT22;5458;51.496;7.334;2022-08-03T01:02:25;22.60;99.70
10812;DHT22;5458;51.496;7.334;2022-08-03T01:04:51;22.60;99.80
10812;DHT22;5458;51.496;7.334;2022-08-03T01:10:00;22.60;99.90
10812;DHT22;5458;51.496;7.334;2022-08-03T01:12:37;22.60;99.90
10812;DHT22;5458;51.496;7.334;2022-08-03T01:15:14;22.60;99.90
10812;DHT22;5458;51.496;7.334;2022-08-03T01:18:07;22.50;99.90
10812;DHT22;5458;51.496;7.334;2022-08-03T01:20:37;22.50;99.90
10812;DHT22;5458;51.496;7.334;2022-08-03T01:23:53;22.50;99.90
10812;DHT22;5458;51.496;7.334;2022-08-03T01:31:52;22.40;99.90
10812;DHT22;5458;51.496;7.334;2022-08-03T01:34:27;22.40;99.90
10812;DHT22;5458;51.496;7.334;2022-08-03T01:36:55;22.30;99.90
10812;DHT22;5458;51.496;7.334;2022-08-03T01:39:22;22.40;99.90
10812;DHT22;5458;51.496;7.334;2022-08-03T01:41:57;22.40;99.90
10812;DHT22;5458;51.496;7.334;2022-08-03T01:44:28;22.30;99.90
10812;DHT22;5458;51.496;7.334;2022-08-03T01:46:57;22.40;99.90
10812;DHT22;5458;51.496;7.334;2022-08-03T01:49:24;22.30;99.90
10812;DHT22;5458;51.496;7.334;2022-08-03T01:51:51;22.30;99.90
10812;DHT22;5458;51.496;7.334;2022-08-03T01:54:18;22.30;99.90
10812;DHT22;5458;51.496;7.334;2022-08-03T01:56:45;22.30;99.90
10812;DHT22;5458;51.496;7.334;2022-08-03T01:59:15;22.30;99.90
10812;DHT22;5458;51.496;7.334;2022-08-03T02:01:42;22.30;99.90
10812;DHT22;5458;51.496;7.334;2022-08-03T02:04:09;22.30;99.90
10812;DHT22;5458;51.496;7.334;2022-08-03T02:06:36;22.30;99.90
10812;DHT22;5458;51.496;7.334;2022-08-03T02:09:03;22.30;99.90
10812;DHT22;5458;51.496;7.334;2022-08-03T02:11:30;22.20;99.90
10812;DHT22;5458;51.496;7.334;2022-08-03T02:13:59;22.20;99.90
10812;DHT22;5458;51.496;7.334;2022-08-03T02:16:27;22.20;99.90
10812;DHT22;5458;51.496;7.334;2022-08-03T02:18:54;22.20;99.90
10812;DHT22;5458;51.496;7.334;2022-08-03T02:21:22;22.20;99.90
10812;DHT22;5458;51.496;7.334;2022-08-03T02:23:48;22.10;99.90
10812;DHT22;5458;51.496;7.334;2022-08-03T02:26:16;22.10;99.90
10812;DHT22;5458;51.496;7.334;2022-08-03T02:28:47;22.10;99.90
10812;DHT22;5458;51.496;7.334;2022-08-03T02:31:18;22.10;99.90
10812;DHT22;5458;51.496;7.334;2022-08-03T02:33:51;22.10;99.90
10812;DHT22;5458;51.496;7.334;2022-08-03T02:36:22;22.10;99.90
10812;DHT22;5458;51.496;7.334;2022-08-03T02:38:51;22.10;99.90
10812;DHT22;5458;51.496;7.334;2022-08-03T02:41:21;22.10;99.90
10812;DHT22;5458;51.496;7.334;2022-08-03T02:43:52;22.10;99.90
10812;DHT22;5458;51.496;7.334;2022-08-03T02:46:24;22.10;99.90
10812;DHT22;5458;51.496;7.334;2022-08-03T02:48:53;22.10;99.90
10812;DHT22;5458;51.496;7.334;2022-08-03T02:51:20;22.10;99.90
10812;DHT22;5458;51.496;7.334;2022-08-03T02:53:47;22.10;99.90
10812;DHT22;5458;51.496;7.334;2022-08-03T02:56:13;22.00;99.90
10812;DHT22;5458;51.496;7.334;2022-08-03T02:58:42;22.10;99.90
10812;DHT22;5458;51.496;7.334;2022-08-03T03:01:10;22.00;99.90
10812;DHT22;5458;51.496;7.334;2022-08-03T03:03:37;22.00;99.90
10812;DHT22;5458;51.496;7.334;2022-08-03T03:06:05;22.00;99.90
10812;DHT22;5458;51.496;7.334;2022-08-03T03:08:31;22.00;99.90
10812;DHT22;5458;51.496;7.334;2022-08-03T03:10:59;22.00;99.90
10812;DHT22;5458;51.496;7.334;2022-08-03T03:13:29;22.00;99.90
10812;DHT22;5458;51.496;7.334;2022-08-03T03:15:58;21.90;99.90
10812;DHT22;5458;51.496;7.334;2022-08-03T03:18:27;21.90;99.90
10812;DHT22;5458;51.496;7.334;2022-08-03T03:20:53;21.90;99.90
10812;DHT22;5458;51.496;7.334;2022-08-03T03:23:21;21.80;99.90
10812;DHT22;5458;51.496;7.334;2022-08-03T03:25:47;21.90;99.90
10812;DHT22;5458;51.496;7.334;2022-08-03T03:28:13;21.90;99.90
10812;DHT22;5458;51.496;7.334;2022-08-03T03:30:39;21.80;99.90
10812;DHT22;5458;51.496;7.334;2022-08-03T03:33:05;21.80;99.90
10812;DHT22;5458;51.496;7.334;2022-08-03T03:35:31;21.80;99.90
10812;DHT22;5458;51.496;7.334;2022-08-03T03:37:57;21.80;99.90
10812;DHT22;5458;51.496;7.334;2022-08-03T03:40:23;21.80;99.90
10812;DHT22;5458;51.496;7.334;2022-08-03T03:42:49;21.80;99.90
10812;DHT22;5458;51.496;7.334;2022-08-03T03:45:15;21.80;99.90
10812;DHT22;5458;51.496;7.334;2022-08-03T03:47:41;21.80;99.90
10812;DHT22;5458;51.496;7.334;2022-08-03T03:50:07;21.80;99.90
10812;DHT22;5458;51.496;7.334;2022-08-03T03:52:33;21.80;99.90
10812;DHT22;5458;51.496;7.334;2022-08-03T03:54:58;21.70;99.90
10812;DHT22;5458;51.496;7.334;2022-08-03T03:57:24;21.70;99.90
10812;DHT22;5458;51.496;7.334;2022-08-03T03:59:50;21.70;99.90
10812;DHT22;5458;51.496;7.334;2022-08-03T04:02:16;21.80;99.90
10812;DHT22;5458;51.496;7.334;2022-08-03T04:04:42;21.70;99.90
10812;DHT22;5458;51.496;7.334;2022-08-03T04:07:27;21.70;99.90
10812;DHT22;5458;51.496;7.334;2022-08-03T04:10:20;21.70;99.90
10812;DHT22;5458;51.496;7.334;2022-08-03T04:13:08;21.70;99.90
10812;DHT22;5458;51.496;7.334;2022-08-03T04:15:37;21.70;99.90
10812;DHT22;5458;51.496;7.334;2022-08-03T04:18:04;21.80;99.90
10812;DHT22;5458;51.496;7.334;2022-08-03T04:20:33;21.80;99.90
10812;DHT22;5458;51.496;7.334;2022-08-03T04:23:00;21.80;99.90
10812;DHT22;5458;51.496;7.334;2022-08-03T04:25:30;21.80;99.90
10812;DHT22;5458;51.496;7.334;2022-08-03T04:27:59;21.80;99.90
10812;DHT22;5458;51.496;7.334;2022-08-03T04:30:26;21.80;99.90
10812;DHT22;5458;51.496;7.334;2022-08-03T04:32:54;21.80;99.90
10812;DHT22;5458;51.496;7.334;2022-08-03T04:35:22;21.80;99.90
10812;DHT22;5458;51.496;7.334;2022-08-03T04:37:50;21.80;99.90
10812;DHT22;5458;51.496;7.334;2022-08-03T04:40:36;21.80;99.90
10812;DHT22;5458;51.496;7.334;2022-08-03T04:43:04;21.80;99.90
10812;DHT22;5458;51.496;7.334;2022-08-03T04:45:33;21.80;99.90
10812;DHT22;5458;51.496;7.334;2022-08-03T04:48:00;21.80;99.90
10812;DHT22;5458;51.496;7.334;2022-08-03T04:50:26;21.90;99.90
10812;DHT22;5458;51.496;7.334;2022-08-03T04:52:52;21.90;99.90
10812;DHT22;5458;51.496;7.334;2022-08-03T04:55:28;22.00;99.90
10812;DHT22;5458;51.496;7.334;2022-08-03T04:57:55;22.00;99.90
10812;DHT22;5458;51.496;7.334;2022-08-03T05:00:21;22.00;99.90
10812;DHT22;5458;51.496;7.334;2022-08-03T05:02:46;22.20;99.90
10812;DHT22;5458;51.496;7.334;2022-08-03T05:05:12;22.20;99.90
10812;DHT22;5458;51.496;7.334;2022-08-03T05:07:38;22.30;99.90
10812;DHT22;5458;51.496;7.334;2022-08-03T05:10:06;22.30;99.90
10812;DHT22;5458;51.496;7.334;2022-08-03T05:12:32;22.30;99.90
10812;DHT22;5458;51.496;7.334;2022-08-03T05:14:58;22.30;99.90
10812;DHT22;5458;51.496;7.334;2022-08-03T05:17:24;22.40;99.90
10812;DHT22;5458;51.496;7.334;2022-08-03T05:19:49;22.40;99.90
10812;DHT22;5458;51.496;7.334;2022-08-03T05:22:15;22.50;99.90
10812;DHT22;5458;51.496;7.334;2022-08-03T05:24:40;22.50;99.90
10812;DHT22;5458;51.496;7.334;2022-08-03T05:27:06;22.50;99.90
10812;DHT22;5458;51.496;7.334;2022-08-03T05:29:32;22.60;99.90
10812;DHT22;5458;51.496;7.334;2022-08-03T05:31:57;22.60;99.90
10812;DHT22;5458;51.496;7.334;2022-08-03T05:34:23;22.70;99.90
10812;DHT22;5458;51.496;7.334;2022-08-03T05:36:48;22.80;99.90
10812;DHT22;5458;51.496;7.334;2022-08-03T05:39:14;22.80;99.90
10812;DHT22;5458;51.496;7.334;2022-08-03T05:41:40;22.90;99.90
10812;DHT22;5458;51.496;7.334;2022-08-03T05:44:05;23.00;99.90
10812;DHT22;5458;51.496;7.334;2022-08-03T05:46:31;23.30;99.90
10812;DHT22;5458;51.496;7.334;2022-08-03T05:48:56;24.40;99.90
10812;DHT22;5458;51.496;7.334;2022-08-03T05:51:22;26.50;96.70
10812;DHT22;5458;51.496;7.334;2022-08-03T05:53:48;28.40;93.80
10812;DHT22;5458;51.496;7.334;2022-08-03T05:56:13;30.10;90.80
10812;DHT22;5458;51.496;7.334;2022-08-03T05:58:39;31.70;84.70
10812;DHT22;5458;51.496;7.334;2022-08-03T06:01:04;33.30;77.70
10812;DHT22;5458;51.496;7.334;2022-08-03T06:03:30;34.30;72.60
10812;DHT22;5458;51.496;7.334;2022-08-03T06:05:56;34.80;68.60
10812;DHT22;5458;51.496;7.334;2022-08-03T06:08:22;35.50;64.10
10812;DHT22;5458;51.496;7.334;2022-08-03T06:10:48;36.50;60.40
10812;DHT22;5458;51.496;7.334;2022-08-03T06:13:14;37.30;57.90
10812;DHT22;5458;51.496;7.334;2022-08-03T06:15:40;38.00;55.30
10812;DHT22;5458;51.496;7.334;2022-08-03T06:18:06;38.50;53.30
10812;DHT22;5458;51.496;7.334;2022-08-03T06:20:32;38.80;52.10
10812;DHT22;5458;51.496;7.334;2022-08-03T06:22:58;38.90;51.00
10812;DHT22;5458;51.496;7.334;2022-08-03T06:25:25;39.30;50.10
10812;DHT22;5458;51.496;7.334;2022-08-03T06:27:50;39.90;49.10
10812;DHT22;5458;51.496;7.334;2022-08-03T06:30:16;40.20;47.30
10812;DHT22;5458;51.496;7.334;2022-08-03T06:32:43;40.20;47.40
10812;DHT22;5458;51.496;7.334;2022-08-03T06:35:09;40.30;47.70
10812;DHT22;5458;51.496;7.334;2022-08-03T06:37:47;40.30;47.40
10812;DHT22;5458;51.496;7.334;2022-08-03T06:40:15;40.80;46.30
10812;DHT22;5458;51.496;7.334;2022-08-03T06:42:41;41.40;46.30
10812;DHT22;5458;51.496;7.334;2022-08-03T06:45:07;42.00;44.80
10812;DHT22;5458;51.496;7.334;2022-08-03T06:47:35;42.20;43.00
10812;DHT22;5458;51.496;7.334;2022-08-03T06:50:01;42.30;42.70
10812;DHT22;5458;51.496;7.334;2022-08-03T06:52:27;42.60;42.20
10812;DHT22;5458;51.496;7.334;2022-08-03T06:54:53;42.80;42.00
10812;DHT22;5458;51.496;7.334;2022-08-03T06:57:19;43.10;41.40
10812;DHT22;5458;51.496;7.334;2022-08-03T06:59:44;43.10;40.70
10812;DHT22;5458;51.496;7.334;2022-08-03T07:02:10;42.80;41.30
10812;DHT22;5458;51.496;7.334;2022-08-03T07:04:36;43.00;41.50
10812;DHT22;5458;51.496;7.334;2022-08-03T07:07:02;43.50;41.00
10812;DHT22;5458;51.496;7.334;2022-08-03T07:09:28;43.60;40.30
10812;DHT22;5458;51.496;7.334;2022-08-03T07:11:53;43.90;39.80
10812;DHT22;5458;51.496;7.334;2022-08-03T07:14:20;44.10;39.40
10812;DHT22;5458;51.496;7.334;2022-08-03T07:16:45;44.40;39.20
10812;DHT22;5458;51.496;7.334;2022-08-03T07:19:11;44.70;38.70
10812;DHT22;5458;51.496;7.334;2022-08-03T07:21:37;45.30;38.20
10812;DHT22;5458;51.496;7.334;2022-08-03T07:24:02;45.50;37.50
10812;DHT22;5458;51.496;7.334;2022-08-03T07:26:28;45.70;37.40
10812;DHT22;5458;51.496;7.334;2022-08-03T07:28:54;45.40;37.10
10812;DHT22;5458;51.496;7.334;2022-08-03T07:31:19;45.40;37.60
10812;DHT22;5458;51.496;7.334;2022-08-03T07:33:45;45.70;36.50
10812;DHT22;5458;51.496;7.334;2022-08-03T07:36:11;45.80;36.70
10812;DHT22;5458;51.496;7.334;2022-08-03T07:38:36;45.70;36.10
10812;DHT22;5458;51.496;7.334;2022-08-03T07:41:02;45.70;36.50
10812;DHT22;5458;51.496;7.334;2022-08-03T07:43:28;45.20;36.40
10812;DHT22;5458;51.496;7.334;2022-08-03T07:45:53;44.50;36.80
10812;DHT22;5458;51.496;7.334;2022-08-03T07:48:19;44.30;37.30
10812;DHT22;5458;51.496;7.334;2022-08-03T07:50:45;44.70;36.90
10812;DHT22;5458;51.496;7.334;2022-08-03T07:53:10;45.30;36.80
10812;DHT22;5458;51.496;7.334;2022-08-03T07:55:36;46.20;35.70
10812;DHT22;5458;51.496;7.334;2022-08-03T07:58:03;46.50;35.30
10812;DHT22;5458;51.496;7.334;2022-08-03T08:00:29;47.00;34.60
10812;DHT22;5458;51.496;7.334;2022-08-03T08:02:54;47.20;34.30
10812;DHT22;5458;51.496;7.334;2022-08-03T08:05:20;47.30;33.60
10812;DHT22;5458;51.496;7.334;2022-08-03T08:07:46;46.90;34.00
10812;DHT22;5458;51.496;7.334;2022-08-03T08:10:11;46.60;33.80
10812;DHT22;5458;51.496;7.334;2022-08-03T08:12:38;46.10;35.10
10812;DHT22;5458;51.496;7.334;2022-08-03T08:15:05;46.10;34.20
10812;DHT22;5458;51.496;7.334;2022-08-03T08:17:44;45.80;34.90
10812;DHT22;5458;51.496;7.334;2022-08-03T08:20:14;45.60;34.70
10812;DHT22;5458;51.496;7.334;2022-08-03T08:22:40;44.40;35.00
10812;DHT22;5458;51.496;7.334;2022-08-03T08:25:05;43.60;36.30
10812;DHT22;5458;51.496;7.334;2022-08-03T08:27:31;42.70;36.90
10812;DHT22;5458;51.496;7.334;2022-08-03T08:29:57;42.00;37.80
10812;DHT22;5458;51.496;7.334;2022-08-03T08:32:22;40.90;39.20
10812;DHT22;5458;51.496;7.334;2022-08-03T08:34:48;40.10;39.80
10812;DHT22;5458;51.496;7.334;2022-08-03T08:37:14;39.20;40.80
10812;DHT22;5458;51.496;7.334;2022-08-03T08:39:39;38.50;41.50
10812;DHT22;5458;51.496;7.334;2022-08-03T08:42:05;37.60;43.20
10812;DHT22;5458;51.496;7.334;2022-08-03T08:44:31;37.00;44.60
10812;DHT22;5458;51.496;7.334;2022-08-03T08:46:56;36.60;45.40
10812;DHT22;5458;51.496;7.334;2022-08-03T08:49:27;36.40;45.70
10812;DHT22;5458;51.496;7.334;2022-08-03T08:51:54;36.40;46.20
10812;DHT22;5458;51.496;7.334;2022-08-03T08:54:21;36.60;46.10
10812;DHT22;5458;51.496;7.334;2022-08-03T08:56:51;36.60;44.90
10812;DHT22;5458;51.496;7.334;2022-08-03T08:59:18;36.60;45.80
10812;DHT22;5458;51.496;7.334;2022-08-03T09:01:45;36.60;46.70
10812;DHT22;5458;51.496;7.334;2022-08-03T09:04:10;36.60;46.10
10812;DHT22;5458;51.496;7.334;2022-08-03T09:06:36;36.50;46.50
10812;DHT22;5458;51.496;7.334;2022-08-03T09:09:02;36.30;45.80
10812;DHT22;5458;51.496;7.334;2022-08-03T09:11:27;36.00;46.50
10812;DHT22;5458;51.496;7.334;2022-08-03T09:13:53;36.00;47.70
10812;DHT22;5458;51.496;7.334;2022-08-03T09:16:21;35.90;47.60
10812;DHT22;5458;51.496;7.334;2022-08-03T09:18:51;35.80;46.80
10812;DHT22;5458;51.496;7.334;2022-08-03T09:21:23;35.60;47.10
10812;DHT22;5458;51.496;7.334;2022-08-03T09:23:51;35.40;48.00
10812;DHT22;5458;51.496;7.334;2022-08-03T09:26:28;35.10;48.10
10812;DHT22;5458;51.496;7.334;2022-08-03T09:29:08;35.10;47.90
10812;DHT22;5458;51.496;7.334;2022-08-03T09:34:08;34.90;48.30
10812;DHT22;5458;51.496;7.334;2022-08-03T09:36:47;34.80;48.00
10812;DHT22;5458;51.496;7.334;2022-08-03T09:39:24;34.80;48.90
10812;DHT22;5458;51.496;7.334;2022-08-03T09:42:05;35.00;49.60
10812;DHT22;5458;51.496;7.334;2022-08-03T09:44:38;35.10;48.40
10812;DHT22;5458;51.496;7.334;2022-08-03T09:47:08;35.20;49.30
10812;DHT22;5458;51.496;7.334;2022-08-03T09:49:37;35.30;48.40
10812;DHT22;5458;51.496;7.334;2022-08-03T09:52:16;35.30;47.20
10812;DHT22;5458;51.496;7.334;2022-08-03T09:54:43;34.80;46.90
10812;DHT22;5458;51.496;7.334;2022-08-03T09:57:23;34.30;48.50
10812;DHT22;5458;51.496;7.334;2022-08-03T09:59:50;34.30;49.60
10812;DHT22;5458;51.496;7.334;2022-08-03T10:02:24;34.50;48.30
10812;DHT22;5458;51.496;7.334;2022-08-03T10:04:51;34.60;48.50
10812;DHT22;5458;51.496;7.334;2022-08-03T10:07:19;34.70;48.50
10812;DHT22;5458;51.496;7.334;2022-08-03T10:12:20;34.50;47.80
10812;DHT22;5458;51.496;7.334;2022-08-03T10:14:46;34.30;48.40
10812;DHT22;5458;51.496;7.334;2022-08-03T10:17:12;34.10;48.90
10812;DHT22;5458;51.496;7.334;2022-08-03T10:19:39;33.90;48.90
10812;DHT22;5458;51.496;7.334;2022-08-03T10:22:23;33.90;49.30
10812;DHT22;5458;51.496;7.334;2022-08-03T10:24:55;34.00;50.00
10812;DHT22;5458;51.496;7.334;2022-08-03T10:27:22;34.20;49.20
10812;DHT22;5458;51.496;7.334;2022-08-03T10:29:51;34.10;48.40
10812;DHT22;5458;51.496;7.334;2022-08-03T10:32:29;34.10;49.10
10812;DHT22;5458;51.496;7.334;2022-08-03T10:35:15;34.00;49.00
10812;DHT22;5458;51.496;7.334;2022-08-03T10:37:58;34.10;49.50
10812;DHT22;5458;51.496;7.334;2022-08-03T10:40:27;34.30;49.30
10812;DHT22;5458;51.496;7.334;2022-08-03T10:42:55;34.40;49.20
10812;DHT22;5458;51.496;7.334;2022-08-03T10:45:26;34.50;48.30
10812;DHT22;5458;51.496;7.334;2022-08-03T10:47:54;34.40;48.50
10812;DHT22;5458;51.496;7.334;2022-08-03T10:50:24;34.50;49.10
10812;DHT22;5458;51.496;7.334;2022-08-03T10:52:55;34.60;49.40
10812;DHT22;5458;51.496;7.334;2022-08-03T10:55:53;34.50;49.70
10812;DHT22;5458;51.496;7.334;2022-08-03T11:01:54;34.30;48.50
10812;DHT22;5458;51.496;7.334;2022-08-03T11:04:21;34.20;48.60
10812;DHT22;5458;51.496;7.334;2022-08-03T11:07:21;34.10;49.20
10812;DHT22;5458;51.496;7.334;2022-08-03T11:09:52;34.10;49.60
10812;DHT22;5458;51.496;7.334;2022-08-03T11:14:52;34.10;48.80
10812;DHT22;5458;51.496;7.334;2022-08-03T11:17:18;33.90;49.50
10812;DHT22;5458;51.496;7.334;2022-08-03T11:19:49;33.90;49.50
10812;DHT22;5458;51.496;7.334;2022-08-03T11:22:16;33.90;49.70
10812;DHT22;5458;51.496;7.334;2022-08-03T11:30:08;34.10;50.70
10812;DHT22;5458;51.496;7.334;2022-08-03T11:37:33;34.00;50.10
10812;DHT22;5458;51.496;7.334;2022-08-03T11:39:59;34.00;50.80
10812;DHT22;5458;51.496;7.334;2022-08-03T11:44:57;34.10;50.40
10812;DHT22;5458;51.496;7.334;2022-08-03T11:47:25;34.00;50.60
10812;DHT22;5458;51.496;7.334;2022-08-03T11:49:55;34.10;50.70
10812;DHT22;5458;51.496;7.334;2022-08-03T11:52:22;34.20;50.30
10812;DHT22;5458;51.496;7.334;2022-08-03T11:54:52;34.30;49.50
10812;DHT22;5458;51.496;7.334;2022-08-03T11:57:28;34.30;48.90
10812;DHT22;5458;51.496;7.334;2022-08-03T11:59:54;34.10;49.00
10812;DHT22;5458;51.496;7.334;2022-08-03T12:02:20;34.10;50.00
10812;DHT22;5458;51.496;7.334;2022-08-03T12:04:56;34.20;49.60
10812;DHT22;5458;51.496;7.334;2022-08-03T12:07:23;34.20;49.80
10812;DHT22;5458;51.496;7.334;2022-08-03T12:12:34;34.10;50.20
10812;DHT22;5458;51.496;7.334;2022-08-03T12:15:01;34.10;50.10
10812;DHT22;5458;51.496;7.334;2022-08-03T12:17:34;34.10;50.90
10812;DHT22;5458;51.496;7.334;2022-08-03T12:20:00;34.00;50.20
10812;DHT22;5458;51.496;7.334;2022-08-03T12:22:33;34.00;49.90
10812;DHT22;5458;51.496;7.334;2022-08-03T12:24:59;33.90;49.40
10812;DHT22;5458;51.496;7.334;2022-08-03T12:27:26;34.00;50.30
10812;DHT22;5458;51.496;7.334;2022-08-03T12:29:55;34.10;51.00
10812;DHT22;5458;51.496;7.334;2022-08-03T12:32:22;34.10;50.20
10812;DHT22;5458;51.496;7.334;2022-08-03T12:34:49;34.20;50.40
10812;DHT22;5458;51.496;7.334;2022-08-03T12:37:21;34.10;49.70
10812;DHT22;5458;51.496;7.334;2022-08-03T12:39:55;34.00;50.10
10812;DHT22;5458;51.496;7.334;2022-08-03T12:42:28;33.90;50.60
10812;DHT22;5458;51.496;7.334;2022-08-03T12:44:54;34.00;51.80
10812;DHT22;5458;51.496;7.334;2022-08-03T12:47:19;33.90;50.60
10812;DHT22;5458;51.496;7.334;2022-08-03T12:49:50;33.80;50.30
10812;DHT22;5458;51.496;7.334;2022-08-03T12:52:17;33.80;50.50
10812;DHT22;5458;51.496;7.334;2022-08-03T12:54:59;33.90;50.70
10812;DHT22;5458;51.496;7.334;2022-08-03T12:57:39;33.90;49.80
10812;DHT22;5458;51.496;7.334;2022-08-03T13:00:12;33.90;50.00
10812;DHT22;5458;51.496;7.334;2022-08-03T13:02:38;33.90;50.10
10812;DHT22;5458;51.496;7.334;2022-08-03T13:05:14;33.90;50.00
10812;DHT22;5458;51.496;7.334;2022-08-03T13:07:41;33.90;49.90
10812;DHT22;5458;51.496;7.334;2022-08-03T13:10:08;33.80;50.70
10812;DHT22;5458;51.496;7.334;2022-08-03T13:12:48;33.80;50.80
10812;DHT22;5458;51.496;7.334;2022-08-03T13:15:14;33.80;49.10
10812;DHT22;5458;51.496;7.334;2022-08-03T13:17:40;33.70;50.20
10812;DHT22;5458;51.496;7.334;2022-08-03T13:20:06;33.70;50.10
10812;DHT22;5458;51.496;7.334;2022-08-03T13:22:32;33.70;49.90
10812;DHT22;5458;51.496;7.334;2022-08-03T13:24:59;33.80;50.10
10812;DHT22;5458;51.496;7.334;2022-08-03T13:27:29;33.70;50.10
10812;DHT22;5458;51.496;7.334;2022-08-03T13:29:55;33.70;50.90
10812;DHT22;5458;51.496;7.334;2022-08-03T13:32:22;33.70;50.90
10812;DHT22;5458;51.496;7.334;2022-08-03T13:34:48;33.70;50.40
10812;DHT22;5458;51.496;7.334;2022-08-03T13:37:13;33.60;50.50
10812;DHT22;5458;51.496;7.334;2022-08-03T13:39:40;33.60;50.30
10812;DHT22;5458;51.496;7.334;2022-08-03T13:42:06;33.60;51.10
10812;DHT22;5458;51.496;7.334;2022-08-03T13:44:32;33.70;51.40
10812;DHT22;5458;51.496;7.334;2022-08-03T13:46:58;33.70;51.20
10812;DHT22;5458;51.496;7.334;2022-08-03T13:49:25;33.70;51.00
10812;DHT22;5458;51.496;7.334;2022-08-03T13:51:51;33.70;51.40
10812;DHT22;5458;51.496;7.334;2022-08-03T13:54:17;33.70;50.70
10812;DHT22;5458;51.496;7.334;2022-08-03T13:56:43;33.70;50.50
10812;DHT22;5458;51.496;7.334;2022-08-03T13:59:14;33.70;50.50
10812;DHT22;5458;51.496;7.334;2022-08-03T14:01:40;33.80;50.50
10812;DHT22;5458;51.496;7.334;2022-08-03T14:04:05;33.90;51.10
10812;DHT22;5458;51.496;7.334;2022-08-03T14:06:31;33.80;50.90
10812;DHT22;5458;51.496;7.334;2022-08-03T14:08:57;33.90;50.70
10812;DHT22;5458;51.496;7.334;2022-08-03T14:11:22;33.90;50.20
10812;DHT22;5458;51.496;7.334;2022-08-03T14:13:48;33.90;50.20
10812;DHT22;5458;51.496;7.334;2022-08-03T14:16:13;33.90;50.10
10812;DHT22;5458;51.496;7.334;2022-08-03T14:18:39;33.70;50.40
10812;DHT22;5458;51.496;7.334;2022-08-03T14:21:06;33.60;50.40
10812;DHT22;5458;51.496;7.334;2022-08-03T14:23:32;33.70;50.40
10812;DHT22;5458;51.496;7.334;2022-08-03T14:25:59;33.70;50.70
10812;DHT22;5458;51.496;7.334;2022-08-03T14:28:24;33.80;50.10
10812;DHT22;5458;51.496;7.334;2022-08-03T14:30:51;33.90;50.30
10812;DHT22;5458;51.496;7.334;2022-08-03T14:33:18;34.10;49.90
10812;DHT22;5458;51.496;7.334;2022-08-03T14:35:44;34.20;50.00
10812;DHT22;5458;51.496;7.334;2022-08-03T14:38:10;34.20;49.50
10812;DHT22;5458;51.496;7.334;2022-08-03T14:40:35;34.30;49.90
10812;DHT22;5458;51.496;7.334;2022-08-03T14:43:01;34.30;49.10
10812;DHT22;5458;51.496;7.334;2022-08-03T14:45:27;34.10;49.80
10812;DHT22;5458;51.496;7.334;2022-08-03T14:47:52;34.00;50.40
10812;DHT22;5458;51.496;7.334;2022-08-03T14:50:18;34.00;49.90
10812;DHT22;5458;51.496;7.334;2022-08-03T14:52:43;33.90;49.60
10812;DHT22;5458;51.496;7.334;2022-08-03T14:55:09;33.90;49.80
10812;DHT22;5458;51.496;7.334;2022-08-03T14:57:34;33.80;49.30
10812;DHT22;5458;51.496;7.334;2022-08-03T15:00:00;33.80;49.70
10812;DHT22;5458;51.496;7.334;2022-08-03T15:02:26;33.90;50.00
10812;DHT22;5458;51.496;7.334;2022-08-03T15:04:53;34.00;49.70
10812;DHT22;5458;51.496;7.334;2022-08-03T15:07:19;34.00;48.80
10812;DHT22;5458;51.496;7.334;2022-08-03T15:09:44;33.90;48.90
10812;DHT22;5458;51.496;7.334;2022-08-03T15:12:10;33.80;49.70
10812;DHT22;5458;51.496;7.334;2022-08-03T15:14:36;33.80;49.50
10812;DHT22;5458;51.496;7.334;2022-08-03T15:17:01;33.70;49.10
10812;DHT22;5458;51.496;7.334;2022-08-03T15:19:27;33.50;49.60
10812;DHT22;5458;51.496;7.334;2022-08-03T15:21:53;33.50;49.20
10812;DHT22;5458;51.496;7.334;2022-08-03T15:24:18;33.60;49.80
10812;DHT22;5458;51.496;7.334;2022-08-03T15:26:44;33.70;50.10
10812;DHT22;5458;51.496;7.334;2022-08-03T15:29:10;33.70;49.60
10812;DHT22;5458;51.496;7.334;2022-08-03T15:31:35;33.80;50.00
10812;DHT22;5458;51.496;7.334;2022-08-03T15:34:01;33.70;49.50
10812;DHT22;5458;51.496;7.334;2022-08-03T15:36:26;33.60;49.60
10812;DHT22;5458;51.496;7.334;2022-08-03T15:38:52;33.50;49.50
10812;DHT22;5458;51.496;7.334;2022-08-03T15:41:18;33.40;49.80
10812;DHT22;5458;51.496;7.334;2022-08-03T15:43:44;33.50;49.60
10812;DHT22;5458;51.496;7.334;2022-08-03T15:46:11;33.50;49.80
10812;DHT22;5458;51.496;7.334;2022-08-03T15:48:38;33.50;50.00
10812;DHT22;5458;51.496;7.334;2022-08-03T15:51:04;33.60;50.10
10812;DHT22;5458;51.496;7.334;2022-08-03T15:53:30;33.70;49.10
10812;DHT22;5458;51.496;7.334;2022-08-03T15:55:56;33.70;49.30
10812;DHT22;5458;51.496;7.334;2022-08-03T15:58:22;33.70;49.00
10812;DHT22;5458;51.496;7.334;2022-08-03T16:00:47;33.70;49.20
10812;DHT22;5458;51.496;7.334;2022-08-03T16:03:13;33.80;49.30
10812;DHT22;5458;51.496;7.334;2022-08-03T16:05:38;33.80;48.90
10812;DHT22;5458;51.496;7.334;2022-08-03T16:08:04;33.70;49.40
10812;DHT22;5458;51.496;7.334;2022-08-03T16:10:30;33.60;49.00
10812;DHT22;5458;51.496;7.334;2022-08-03T16:12:56;33.50;49.20
10812;DHT22;5458;51.496;7.334;2022-08-03T16:15:23;33.50;49.50
10812;DHT22;5458;51.496;7.334;2022-08-03T16:17:48;33.50;49.10
10812;DHT22;5458;51.496;7.334;2022-08-03T16:20:14;33.50;48.70
10812;DHT22;5458;51.496;7.334;2022-08-03T16:22:45;33.50;48.60
10812;DHT22;5458;51.496;7.334;2022-08-03T16:25:12;33.60;49.00
10812;DHT22;5458;51.496;7.334;2022-08-03T16:27:38;33.50;49.10